Relevés horaires Spa / La Sauveniere (Belgique)


Relevés horaires à Spa / La Sauveniere - Dimanche 25 Avr. 2021
Heure UTC1 Température [°C] Vent [km/h] Hum. [%] Pres.4 [hPa] Visi. [Km] Nébu. [octa] Préc.5 [mm] Cond.
2m. Res. Ros. Dir.2 Vit. Moy. Raf.3
23:00 2.9 2.9 -2.6 E 3.7 5.6 9.3 67 1023.7(-0.7/3h) 35 0/8 -- --
22:00 3.4 3.4 -2.2 E 3.7 7.4 9.3 67 1024.2(0.2/3h) 35 0/8 -- --
21:00 4.1 4.1 -2.4 E 3.7 7.4 13.0 63 1024.1(-0.4/3h) 40 0/8 -- --
20:00 3.9 3.9 -1.5 ENE 1.9 5.6 9.3 68 1024.3(-0.7/3h) 30 0/8 -- --
19:00 5.2 4.1 -1.2 NE 5.6 7.4 13.0 63 1024(-0.9/3h) 30 0/8 -- --
18:00 7.5 6.7 -0.7 NNE 5.6 11.1 16.7 56 1023.8(-0.9/3h) 30 0/8 0/12h
--
17:00 8.5 7.4 -1.4 NNE 7.4 7.4 13.0 50 1024(-0.9/3h) 30 0/8 -- --
16:00 8.9 8.3 -2.2 N 5.6 9.3 14.8 46 1024.2(-1.1/3h) 25 0/8 -- --
15:00 9.2 7.8 -0.6 N 9.3 11.1 16.7 50 1024.4(-0.8/3h) 20 0/8 -- --
14:00 9.0 8 -0.1 N 7.4 11.1 16.7 53 1024.9(-0.6/3h) 23 0/8 -- --
13:00 8.2 7 -0.9 N 7.4 9.3 16.7 53 1025.5(-0.4/3h) 23 0/8 -- --
12:00 7.3 5.5 -1.6 N 9.3 9.3 14.8 53 1025.6(-0.4/3h) 19 0/8 0/6h
--
11:00 6.3 4.8 -1.3 N 7.4 9.3 14.8 58 1026.1(-0.2/3h) 22 0/8 -- --
10:00 4.8 3.1 -1.1 N 7.4 9.3 14.8 66 1026.6(0.1/3h) 18 0/8 -- --
09:00 4.2 2.4 -1.5 N 7.4 7.4 13.0 66 1026.7(0.3/3h) 19 0/8 -- --
08:00 3.3 1.3 -1.0 N 7.4 7.4 13.0 73 1026.9(0.7/3h) 20 6/8 -- --
07:00 2.0 2.0 -0.7 NNO 3.7 5.6 7.4 82 1027.1(0.9/3h) 16 4/8 -- --
06:00 0.7 0.7 -1.3 ENE 3.7 3.7 7.4 86 1027.2(0.5/3h) 16 0/8 0/12h
--
05:00 -1.2 -1.2 -2.1 NNO 0.0 3.7 7.4 94 1027.2(0.2/3h) 13 0/8 -- --
04:00 -0.4 -0.4 -2.0 ENE 3.7 3.7 7.4 89 1026.7(0.2/3h) 22 0/8 -- --
03:00 -0.5 -0.5 -2.3 E 1.9 3.7 5.6 88 1026.9(-0.2/3h) 29 0/8 -- --
02:00 0.5 0.5 -1.8 E 1.9 3.7 5.6 85 1026.6(-0.3/3h) 30 0/8 -- --
01:00 1.0 1.0 -1.8 NE 3.7 3.7 5.6 82 1026.6(0.1/3h) 30 0/8 -- --
00:00 2.1 2.1 -1.6 NE 3.7 5.6 11.1 76 1026.6(0.3/3h) 35 0/8 0/6h
0/24h
--

1 Coordinated Universal Time. Actuellement il est 17:00 locale et 16:00 UTC.

2 Le vent souffle depuis la direction indiquée vers la direction oposée.

3 Les rafales max. sont disponible 40 min après l'heure du relevé.

4 Pour les stations d'altitude (plus de 600m) le géopotentiel du niveau le plus proche de la pression obligatoire est indiqué.

5 Les stations disposant d'un diffuseur peuvent indiquer "trace". Cela signifie que des précipitations ont touchés le sol mais que la quantité est inférieure à 0.1 mm.

Récapitulatif de la journée
Température [°C] Vent [km/h] Ensoleillement4 [h] Precipitations totale5 [mm] Pression [Hpa]
Min1 Max.2 Moy.3 Max. Min Max.
-1.3 9.7 7 16.7 0 h 0 min 0 1023.7 1027.2

1 Température minimale relevée entre 18:00 UTC la veille et 18:00 UTC le jour donné.

2 Température maximale relevée entre 06:00 UTC le jour donné et 06:00 UTC le lendemain.

3 Vent moyen de la journée basé sur les relevés horaires.

4 Ensoleillement en heures relevé entre 06:00 UTC la veille et 06:00 UTC le jour donné.

5 Précipitations totales tombées entre 06:00 UTC la jour donné et 06:00 UTC le lendemain.

Graphiques horaires